Airfield :
LOGIN :

Register | Disclaimer

   EN    FR    IT 

 










Legend :    VFR   Marginal VFR   IFR   Intensive IFR   Very Intensive IFR
Visi :
Ceiling :
>= 8 km
>= 3000ft
5 to 8 km
1000 to 3000 ft
1500m to 5 km
500 to 1000 ft
800 to 1500m
200 to 500 ft
< 800m
< 200 ft
Symbols :   Thunderstorms  Fog  Heavy snow  Heavy precipitations  Wind > 20 kt
SIGMETs :     Misc.  Thunderstorms  Icing  Turbulence  Mountain Waves  Volcanic Ashes







- Airport Elevation : 231 ft
- IATA code : WTN


EGXW - RAF Waddington

CURRENT METAR :
  • 200739Z 27007KT 4000 -DZ OVC002 11/11 Q0998 AMB BECMG 5000 BR BKN004 YLO2

EXPIRED METARs :
  • 200724Z 26007KT 2800 -DZ OVC002 11/11 Q0997 AMB BECMG 5000 BR BKN004 YLO2
  • 200650Z 23004KT 5000 BR BKN002 OVC010 11/11 Q0997 AMB BECMG BKN007 GRN
  • 200550Z 15003KT 2000 DZ BKN002 11/11 Q0996 AMB

TAF TAF EGXW
Valid from the 20 at 09:00 until the 21 at 03:00 UTC


200729Z 2009/2103 27008KT 9999 BKN010
PROB40
TEMPO 2009/2011 4000 BR SCT004
PROB30
TEMPO 2011/2015 4000 -RADZ
PROB30
TEMPO 2011/2013 SCT005
BECMG 2015/2017 BKN025
BECMG 2016/2019 22010KT
BECMG 2022/2024 16015G25KT
TEMPO 2022/2103 4000 RA BKN012
No reported NOTAMs for that airfield.
2 SIGMETs reported for the London FIR (EGTT) :
 
Severe turbulence
EGTT SIGMET 03 VALID 200700/201100 EGRR
EGTT LONDON FIR SEV TURB OBS WI N5130 E00200 - N5107 E00200 - N5100 E00128 - N5040 E00128 - N5012 E00017 - N5440 W00420 - N5438 W00126 - N5139 E00207 - N5130 E00200 FL250/370 MOV E 20KT NC=
Severe turbulence
EGTT SIGMET 02 VALID 200730/201130 EGRR
EGTT LONDON FIR SEV TURB FCST S OF LINE N4937 W00800 - N5125 E00200 SFC/FL060 MOV ESE 15KT NC=



MET'MAP, your aeronautical weather chart ! - Copyright ORBIFLY December 2007 - Disclaimer

ORBIFLY MET'MAP TEAM :

Programming & Development : Alexandra Zaïnal
Concept & Development : Baudouin d'Aumeries
Co-Development & Prog : Marc-Olivier Méhu
Technical & hardware support : Manuel Goepfert

Contact : metmap@orbifly.com




SOURCES & CREDITS :

   NOAA